createdAt,value
2018-07-02T00:00:08.165Z,1003.35
2018-07-02T00:01:08.115Z,1003.35
2018-07-02T00:02:08.089Z,1003.35
2018-07-02T00:03:08.091Z,1003.36
2018-07-02T00:04:08.048Z,1003.35
2018-07-02T00:05:08.019Z,1003.32
2018-07-02T00:06:08.002Z,1003.34
2018-07-02T00:07:07.974Z,1003.34
2018-07-02T00:08:07.943Z,1003.33
2018-07-02T00:09:07.929Z,1003.27
2018-07-02T00:10:07.903Z,1003.25
2018-07-02T00:11:07.881Z,1003.19
2018-07-02T00:12:07.859Z,1003.18
2018-07-02T00:13:07.828Z,1003.17
2018-07-02T00:14:07.809Z,1003.15
2018-07-02T00:15:07.780Z,1003.14
2018-07-02T00:16:07.759Z,1003.15
2018-07-02T00:17:07.729Z,1003.15
2018-07-02T00:18:07.706Z,1003.14
2018-07-02T00:19:07.691Z,1003.14
2018-07-02T00:20:07.680Z,1003.11
2018-07-02T00:21:07.635Z,1003.12
2018-07-02T00:22:07.617Z,1003.06
2018-07-02T00:23:07.585Z,1003.06
2018-07-02T00:24:07.564Z,1003.07
2018-07-02T00:25:07.540Z,1003.08
2018-07-02T00:26:07.515Z,1003.12
2018-07-02T00:27:07.498Z,1003.08
2018-07-02T00:28:07.474Z,1003.09
2018-07-02T00:29:07.442Z,1003.11
2018-07-02T00:30:07.418Z,1003.11
2018-07-02T00:31:07.400Z,1003.09
2018-07-02T00:32:07.374Z,1003.09
2018-07-02T00:33:07.352Z,1003.09
2018-07-02T00:34:07.328Z,1003.08
2018-07-02T00:35:07.306Z,1003.08
2018-07-02T00:36:07.283Z,1003.06
2018-07-02T00:37:07.253Z,1003.01
2018-07-02T00:38:07.225Z,1003.02
2018-07-02T00:39:07.205Z,1003.01
2018-07-02T00:40:07.183Z,1003.01
2018-07-02T00:41:07.154Z,1003.02
2018-07-02T00:42:07.146Z,1003.01
2018-07-02T00:43:07.111Z,1003.06
2018-07-02T00:44:07.091Z,1003.04
2018-07-02T00:45:07.059Z,1003.02
2018-07-02T00:46:07.033Z,1003.01
2018-07-02T00:47:07.020Z,1003.00
2018-07-02T00:48:06.985Z,1002.99
2018-07-02T00:49:06.969Z,1003.02
2018-07-02T00:50:06.946Z,1002.99
2018-07-02T00:51:06.916Z,1002.94
2018-07-02T00:52:06.895Z,1002.93
2018-07-02T00:53:06.874Z,1002.93
2018-07-02T00:54:06.850Z,1002.95
2018-07-02T00:55:06.820Z,1002.96
2018-07-02T00:56:06.802Z,1002.91
2018-07-02T00:57:06.770Z,1002.90
2018-07-02T00:58:06.746Z,1002.93
2018-07-02T00:59:06.731Z,1002.96
2018-07-02T01:00:06.700Z,1002.91
2018-07-02T01:01:06.682Z,1002.93
2018-07-02T01:02:06.657Z,1003.00
2018-07-02T01:03:06.625Z,1002.96
2018-07-02T01:04:06.609Z,1002.95
2018-07-02T01:05:06.576Z,1002.94
2018-07-02T01:06:06.554Z,1002.88
2018-07-02T01:07:06.536Z,1002.84
2018-07-02T01:08:06.511Z,1002.84
2018-07-02T01:09:06.479Z,1002.81
2018-07-02T01:10:06.457Z,1002.80
2018-07-02T01:11:06.433Z,1002.82
2018-07-02T01:12:06.407Z,1002.80
2018-07-02T01:13:06.384Z,1002.80
2018-07-02T01:14:06.368Z,1002.80
2018-07-02T01:15:06.337Z,1002.80
2018-07-02T01:16:06.313Z,1002.80
2018-07-02T01:17:06.289Z,1002.75
2018-07-02T01:18:06.267Z,1002.77
2018-07-02T01:19:06.243Z,1002.79
2018-07-02T01:20:06.216Z,1002.80
2018-07-02T01:21:06.191Z,1002.80
2018-07-02T01:22:06.170Z,1002.77
2018-07-02T01:23:06.143Z,1002.76
2018-07-02T01:24:06.122Z,1002.78
2018-07-02T01:25:06.092Z,1002.76
2018-07-02T01:26:06.074Z,1002.81
2018-07-02T01:27:06.054Z,1002.77
2018-07-02T01:28:06.020Z,1002.74
2018-07-02T01:29:05.999Z,1002.78
2018-07-02T01:30:05.976Z,1002.73
2018-07-02T01:31:05.957Z,1002.74
2018-07-02T01:32:05.920Z,1002.76
2018-07-02T01:33:05.905Z,1002.77
2018-07-02T01:34:05.875Z,1002.72
2018-07-02T01:35:05.857Z,1002.71
2018-07-02T01:36:05.836Z,1002.76
2018-07-02T01:37:05.800Z,1002.69
2018-07-02T01:38:05.784Z,1002.74
2018-07-02T01:39:05.753Z,1002.72
2018-07-02T01:40:05.759Z,1002.73
2018-07-02T01:41:05.706Z,1002.73
2018-07-02T01:42:05.683Z,1002.74
2018-07-02T01:43:05.662Z,1002.73
2018-07-02T01:44:05.635Z,1002.74
2018-07-02T01:45:05.605Z,1002.77
2018-07-02T01:46:05.588Z,1002.78
2018-07-02T01:47:05.556Z,1002.83
2018-07-02T01:48:05.540Z,1002.83
2018-07-02T01:49:05.510Z,1002.78
2018-07-02T01:50:05.485Z,1002.78
2018-07-02T01:51:05.467Z,1002.77
2018-07-02T01:52:05.438Z,1002.80
2018-07-02T01:53:05.419Z,1002.84
2018-07-02T01:54:05.389Z,1002.82
2018-07-02T01:55:05.364Z,1002.83
2018-07-02T01:56:05.338Z,1002.84
2018-07-02T01:57:05.316Z,1002.82
2018-07-02T01:58:05.298Z,1002.86
2018-07-02T01:59:05.271Z,1002.88
2018-07-02T02:00:05.243Z,1002.86
2018-07-02T02:01:05.219Z,1002.88
2018-07-02T02:02:05.192Z,1002.91
2018-07-02T02:03:05.174Z,1002.92
2018-07-02T02:04:05.146Z,1002.95
2018-07-02T02:05:05.122Z,1002.92
2018-07-02T02:06:05.096Z,1002.94
2018-07-02T02:07:05.074Z,1002.94
2018-07-02T02:08:05.054Z,1002.96
2018-07-02T02:09:05.018Z,1002.94
2018-07-02T02:10:05.002Z,1003.00
2018-07-02T02:11:04.978Z,1002.98
2018-07-02T02:12:04.954Z,1002.99
2018-07-02T02:13:04.930Z,1003.01
2018-07-02T02:14:04.904Z,1003.01
2018-07-02T02:15:04.880Z,1003.00
2018-07-02T02:16:04.857Z,1003.00
2018-07-02T02:17:04.831Z,1002.97
2018-07-02T02:18:04.812Z,1002.99
2018-07-02T02:19:04.775Z,1003.00
2018-07-02T02:20:04.764Z,1003.00
2018-07-02T02:21:04.730Z,1003.01
2018-07-02T02:22:04.707Z,1003.00
2018-07-02T02:23:04.681Z,1003.00
2018-07-02T02:24:04.664Z,1003.04
2018-07-02T02:25:04.631Z,1003.06
2018-07-02T02:26:04.611Z,1003.03
2018-07-02T02:27:04.591Z,1003.04
2018-07-02T02:28:04.560Z,1003.00
2018-07-02T02:29:04.536Z,1003.00
2018-07-02T02:30:04.507Z,1002.98
2018-07-02T02:31:04.490Z,1002.94
2018-07-02T02:32:04.468Z,1002.97
2018-07-02T02:33:04.438Z,1003.00
2018-07-02T02:34:04.411Z,1003.02
2018-07-02T02:35:04.385Z,1003.00
2018-07-02T02:36:04.368Z,1002.95
2018-07-02T02:37:04.335Z,1002.95
2018-07-02T02:38:04.318Z,1002.93
2018-07-02T02:39:04.309Z,1002.92
2018-07-02T02:40:04.268Z,1002.93
2018-07-02T02:41:04.236Z,1002.96
2018-07-02T02:42:04.218Z,1002.95
2018-07-02T02:43:04.191Z,1002.96
2018-07-02T02:44:04.170Z,1002.97
2018-07-02T02:45:04.141Z,1003.02
2018-07-02T02:46:04.115Z,1002.99
2018-07-02T02:47:04.094Z,1003.01
2018-07-02T02:48:04.068Z,1003.02
2018-07-02T02:49:04.047Z,1003.03
2018-07-02T02:50:04.021Z,1003.02
2018-07-02T02:51:03.997Z,1003.03
2018-07-02T02:52:03.966Z,1002.98
2018-07-02T02:53:03.945Z,1002.99
2018-07-02T02:54:03.918Z,1002.95
2018-07-02T02:55:03.894Z,1002.97
2018-07-02T02:56:03.867Z,1002.96
2018-07-02T02:57:03.848Z,1002.95
2018-07-02T02:58:03.817Z,1002.94
2018-07-02T02:59:03.800Z,1002.90
2018-07-02T03:00:03.779Z,1002.90
2018-07-02T03:01:03.800Z,1002.88
2018-07-02T03:02:03.718Z,1002.86
2018-07-02T03:03:03.755Z,1002.87
2018-07-02T03:04:03.678Z,1002.92
2018-07-02T03:05:03.645Z,1002.90
2018-07-02T03:06:03.621Z,1002.88
2018-07-02T03:07:03.649Z,1002.88
2018-07-02T03:08:03.623Z,1002.90
2018-07-02T03:09:03.546Z,1002.90
2018-07-02T03:10:03.522Z,1002.96
2018-07-02T03:11:03.513Z,1002.94
2018-07-02T03:12:03.470Z,1002.98
2018-07-02T03:13:03.460Z,1002.98
2018-07-02T03:14:03.424Z,1002.98
2018-07-02T03:15:03.404Z,1002.94
2018-07-02T03:16:03.378Z,1002.98
2018-07-02T03:17:03.347Z,1002.98
2018-07-02T03:18:03.324Z,1002.97
2018-07-02T03:19:03.305Z,1002.95
2018-07-02T03:20:03.275Z,1002.96
2018-07-02T03:21:03.289Z,1002.96
2018-07-02T03:22:03.224Z,1002.97
2018-07-02T03:23:03.208Z,1002.94
2018-07-02T03:24:03.178Z,1002.96
2018-07-02T03:25:03.175Z,1002.97
2018-07-02T03:26:03.127Z,1002.93
2018-07-02T03:27:03.155Z,1002.95
2018-07-02T03:28:03.079Z,1002.95
2018-07-02T03:29:03.053Z,1002.94
2018-07-02T03:30:03.037Z,1002.96
2018-07-02T03:31:03.001Z,1003.01
2018-07-02T03:32:02.982Z,1003.02
2018-07-02T03:33:02.950Z,1002.98
2018-07-02T03:34:02.929Z,1003.01
2018-07-02T03:35:02.907Z,1002.99
2018-07-02T03:36:02.877Z,1003.00
2018-07-02T03:37:02.860Z,1002.99
2018-07-02T03:38:02.832Z,1003.00
2018-07-02T03:39:02.799Z,1002.95
2018-07-02T03:40:02.778Z,1002.97
2018-07-02T03:41:02.755Z,1002.94
2018-07-02T03:42:02.745Z,1002.95
2018-07-02T03:43:02.703Z,1002.95
2018-07-02T03:44:02.676Z,1002.97
2018-07-02T03:45:02.658Z,1002.96
2018-07-02T03:46:02.626Z,1003.05
2018-07-02T03:47:02.612Z,1003.02
2018-07-02T03:48:02.581Z,1003.03
2018-07-02T03:49:02.551Z,1002.99
2018-07-02T03:50:02.541Z,1003.02
2018-07-02T03:51:02.507Z,1003.07
2018-07-02T03:52:02.530Z,1003.09
2018-07-02T03:53:02.461Z,1003.05
2018-07-02T03:54:02.430Z,1003.05
2018-07-02T03:55:02.406Z,1003.08
2018-07-02T03:56:02.384Z,1003.09
2018-07-02T03:57:02.358Z,1003.12
2018-07-02T03:58:02.335Z,1003.07
2018-07-02T03:59:02.300Z,1003.11
2018-07-02T04:00:02.288Z,1003.12
2018-07-02T04:01:02.254Z,1003.16
2018-07-02T04:02:02.230Z,1003.19
2018-07-02T04:03:02.209Z,1003.22
2018-07-02T04:04:02.200Z,1003.19
2018-07-02T04:05:02.154Z,1003.18
2018-07-02T04:06:02.136Z,1003.25
2018-07-02T04:07:02.107Z,1003.29
2018-07-02T04:08:02.088Z,1003.26
2018-07-02T04:09:02.071Z,1003.27
2018-07-02T04:10:02.031Z,1003.28
2018-07-02T04:11:02.008Z,1003.25
2018-07-02T04:12:02.011Z,1003.33
2018-07-02T04:13:02.018Z,1003.33
2018-07-02T04:14:01.935Z,1003.36
2018-07-02T04:15:01.907Z,1003.37
2018-07-02T04:16:01.881Z,1003.39
2018-07-02T04:17:01.860Z,1003.40
2018-07-02T04:18:01.827Z,1003.39
2018-07-02T04:19:01.818Z,1003.42
2018-07-02T04:20:01.780Z,1003.39
2018-07-02T04:21:01.761Z,1003.40
2018-07-02T04:22:01.731Z,1003.41
2018-07-02T04:23:01.704Z,1003.44
2018-07-02T04:24:01.686Z,1003.46
2018-07-02T04:25:01.657Z,1003.44
2018-07-02T04:26:01.630Z,1003.43
2018-07-02T04:27:01.614Z,1003.42
2018-07-02T04:28:01.585Z,1003.41
2018-07-02T04:29:01.560Z,1003.40
2018-07-02T04:30:01.540Z,1003.41
2018-07-02T04:31:01.507Z,1003.40
2018-07-02T04:32:01.481Z,1003.41
2018-07-02T04:33:01.459Z,1003.42
2018-07-02T04:34:01.436Z,1003.44
2018-07-02T04:35:01.408Z,1003.43
2018-07-02T04:36:01.383Z,1003.46
2018-07-02T04:37:01.360Z,1003.49
2018-07-02T04:38:01.328Z,1003.48
2018-07-02T04:39:01.311Z,1003.46
2018-07-02T04:40:01.285Z,1003.47
2018-07-02T04:41:01.262Z,1003.48
2018-07-02T04:42:01.237Z,1003.47
2018-07-02T04:43:01.207Z,1003.41
2018-07-02T04:44:01.187Z,1003.42
2018-07-02T04:45:01.155Z,1003.39
2018-07-02T04:46:01.127Z,1003.41
2018-07-02T04:47:01.112Z,1003.43
2018-07-02T04:48:01.081Z,1003.40
2018-07-02T04:49:01.060Z,1003.46
2018-07-02T04:50:01.033Z,1003.46
2018-07-02T04:51:01.054Z,1003.47
2018-07-02T04:52:00.983Z,1003.47
2018-07-02T04:53:00.954Z,1003.52
2018-07-02T04:54:00.928Z,1003.50
2018-07-02T04:55:00.909Z,1003.52
2018-07-02T04:56:00.882Z,1003.51
2018-07-02T04:57:00.860Z,1003.60
2018-07-02T04:58:00.832Z,1003.53
2018-07-02T04:59:00.805Z,1003.53
2018-07-02T05:00:00.778Z,1003.56
2018-07-02T05:01:00.765Z,1003.51
2018-07-02T05:02:00.730Z,1003.57
2018-07-02T05:03:00.708Z,1003.57
2018-07-02T05:04:00.694Z,1003.56
2018-07-02T05:05:00.654Z,1003.56
2018-07-02T05:06:00.637Z,1003.56
2018-07-02T05:07:00.604Z,1003.60
2018-07-02T05:08:00.581Z,1003.56
2018-07-02T05:09:00.557Z,1003.55
2018-07-02T05:10:00.528Z,1003.56
2018-07-02T05:11:00.512Z,1003.57
2018-07-02T05:12:00.484Z,1003.50
2018-07-02T05:13:00.458Z,1003.50
2018-07-02T05:14:00.437Z,1003.50
2018-07-02T05:15:00.406Z,1003.50
2018-07-02T05:16:00.391Z,1003.46
2018-07-02T05:17:00.364Z,1003.47
2018-07-02T05:18:00.337Z,1003.43
2018-07-02T05:19:00.307Z,1003.46
2018-07-02T05:20:00.286Z,1003.42
2018-07-02T05:21:00.273Z,1003.42
2018-07-02T05:22:00.236Z,1003.44
2018-07-02T05:23:00.215Z,1003.44
2018-07-02T05:24:00.185Z,1003.44
2018-07-02T05:25:00.162Z,1003.44
2018-07-02T05:26:00.131Z,1003.45
2018-07-02T05:27:00.115Z,1003.45
2018-07-02T05:28:00.083Z,1003.43
2018-07-02T05:29:00.054Z,1003.39
2018-07-02T05:30:00.052Z,1003.43
2018-07-02T05:31:00.015Z,1003.40
2018-07-02T05:31:59.983Z,1003.42
2018-07-02T05:32:59.963Z,1003.43
2018-07-02T05:33:59.941Z,1003.42
2018-07-02T05:34:59.910Z,1003.40
2018-07-02T05:35:59.883Z,1003.41
2018-07-02T05:36:59.879Z,1003.46
2018-07-02T05:37:59.840Z,1003.40
2018-07-02T05:38:59.810Z,1003.38
2018-07-02T05:39:59.793Z,1003.36
2018-07-02T05:40:59.755Z,1003.34
2018-07-02T05:41:59.732Z,1003.31
2018-07-02T05:42:59.721Z,1003.34
2018-07-02T05:43:59.692Z,1003.34
2018-07-02T05:44:59.658Z,1003.28
2018-07-02T05:45:59.735Z,1003.32
2018-07-02T05:46:59.615Z,1003.32
2018-07-02T05:47:59.592Z,1003.32
2018-07-02T05:48:59.558Z,1003.30
2018-07-02T05:49:59.533Z,1003.29
2018-07-02T05:50:59.518Z,1003.30
2018-07-02T05:51:59.490Z,1003.29
2018-07-02T05:52:59.461Z,1003.26
2018-07-02T05:53:59.433Z,1003.30
2018-07-02T05:54:59.436Z,1003.26
2018-07-02T05:55:59.384Z,1003.24
2018-07-02T05:56:59.361Z,1003.23
2018-07-02T05:57:59.341Z,1003.26
2018-07-02T05:58:59.308Z,1003.28
2018-07-02T05:59:59.292Z,1003.28
2018-07-02T06:00:59.265Z,1003.25
2018-07-02T06:01:59.243Z,1003.26
2018-07-02T06:02:59.214Z,1003.28
2018-07-02T06:03:59.195Z,1003.26
2018-07-02T06:04:59.165Z,1003.27
2018-07-02T06:05:59.150Z,1003.26
2018-07-02T06:06:59.114Z,1003.30
2018-07-02T06:07:59.189Z,1003.24
2018-07-02T06:08:59.062Z,1003.26
2018-07-02T06:09:59.039Z,1003.25
2018-07-02T06:10:59.020Z,1003.28
2018-07-02T06:11:58.996Z,1003.29
2018-07-02T06:12:59.013Z,1003.29
2018-07-02T06:13:58.942Z,1003.28
2018-07-02T06:14:58.943Z,1003.28
2018-07-02T06:15:58.891Z,1003.30
2018-07-02T06:16:58.877Z,1003.29
2018-07-02T06:17:58.850Z,1003.33
2018-07-02T06:18:58.819Z,1003.37
2018-07-02T06:19:58.798Z,1003.34
2018-07-02T06:20:58.773Z,1003.25
2018-07-02T06:21:58.743Z,1003.30
2018-07-02T06:22:58.725Z,1003.24
2018-07-02T06:23:58.699Z,1003.25
2018-07-02T06:24:58.674Z,1003.23
2018-07-02T06:25:58.650Z,1003.27
2018-07-02T06:26:58.621Z,1003.27
2018-07-02T06:27:58.604Z,1003.31
2018-07-02T06:28:58.573Z,1003.31
2018-07-02T06:29:58.553Z,1003.32
2018-07-02T06:30:58.538Z,1003.32
2018-07-02T06:31:58.509Z,1003.31
2018-07-02T06:32:58.473Z,1003.33
2018-07-02T06:33:58.455Z,1003.30
2018-07-02T06:34:58.426Z,1003.29
2018-07-02T06:35:58.404Z,1003.29
2018-07-02T06:36:58.381Z,1003.25
2018-07-02T06:37:58.353Z,1003.29
2018-07-02T06:38:58.348Z,1003.29
2018-07-02T06:39:58.309Z,1003.29
2018-07-02T06:40:58.282Z,1003.29
2018-07-02T06:41:58.279Z,1003.30
2018-07-02T06:42:58.229Z,1003.36
2018-07-02T06:43:58.207Z,1003.35
2018-07-02T06:44:58.184Z,1003.33
2018-07-02T06:45:58.161Z,1003.36
2018-07-02T06:46:58.139Z,1003.36
2018-07-02T06:47:58.113Z,1003.35
2018-07-02T06:48:58.090Z,1003.33
2018-07-02T06:49:58.060Z,1003.35
2018-07-02T06:50:58.038Z,1003.34
2018-07-02T06:51:58.012Z,1003.36
2018-07-02T06:52:57.992Z,1003.34
2018-07-02T06:53:57.970Z,1003.37
2018-07-02T06:54:57.942Z,1003.38
2018-07-02T06:55:57.920Z,1003.38
2018-07-02T06:56:57.922Z,1003.43
2018-07-02T06:57:57.867Z,1003.40
2018-07-02T06:58:57.847Z,1003.46
2018-07-02T06:59:57.822Z,1003.42
2018-07-02T07:00:57.800Z,1003.41
2018-07-02T07:01:57.769Z,1003.42
2018-07-02T07:02:57.749Z,1003.40
2018-07-02T07:03:57.729Z,1003.41
2018-07-02T07:04:57.693Z,1003.41
2018-07-02T07:05:57.674Z,1003.36
2018-07-02T07:06:57.648Z,1003.36
2018-07-02T07:07:57.619Z,1003.34
2018-07-02T07:08:57.604Z,1003.35
2018-07-02T07:09:57.575Z,1003.41
2018-07-02T07:10:57.555Z,1003.39
2018-07-02T07:11:57.530Z,1003.37
2018-07-02T07:12:57.499Z,1003.34
2018-07-02T07:13:57.483Z,1003.37
2018-07-02T07:14:57.450Z,1003.39
2018-07-02T07:15:57.434Z,1003.40
2018-07-02T07:16:57.408Z,1003.38
2018-07-02T07:17:57.382Z,1003.40
2018-07-02T07:18:57.362Z,1003.46
2018-07-02T07:19:57.343Z,1003.47
2018-07-02T07:20:57.309Z,1003.51
2018-07-02T07:21:57.289Z,1003.49
2018-07-02T07:22:57.261Z,1003.49
2018-07-02T07:23:57.234Z,1003.47
2018-07-02T07:24:57.218Z,1003.47
2018-07-02T07:25:57.188Z,1003.51
2018-07-02T07:26:57.167Z,1003.41
2018-07-02T07:27:57.148Z,1003.50
2018-07-02T07:28:57.168Z,1003.54
2018-07-02T07:29:57.099Z,1003.55
2018-07-02T07:30:57.116Z,1003.57
2018-07-02T07:31:57.046Z,1003.56
2018-07-02T07:32:57.026Z,1003.55
2018-07-02T07:33:56.995Z,1003.54
2018-07-02T07:34:56.977Z,1003.53
2018-07-02T07:35:56.951Z,1003.52
2018-07-02T07:36:56.923Z,1003.50
2018-07-02T07:37:56.904Z,1003.50
2018-07-02T07:38:56.874Z,1003.51
2018-07-02T07:39:56.857Z,1003.48
2018-07-02T07:40:56.831Z,1003.48
2018-07-02T07:41:56.803Z,1003.51
2018-07-02T07:42:56.786Z,1003.47
2018-07-02T07:43:56.753Z,1003.50
2018-07-02T07:44:56.749Z,1003.53
2018-07-02T07:45:56.713Z,1003.57
2018-07-02T07:46:56.684Z,1003.55
2018-07-02T07:47:56.662Z,1003.60
2018-07-02T07:48:56.637Z,1003.57
2018-07-02T07:49:56.616Z,1003.57
2018-07-02T07:50:56.592Z,1003.57
2018-07-02T07:51:56.568Z,1003.57
2018-07-02T07:52:56.543Z,1003.55
2018-07-02T07:53:56.517Z,1003.53
2018-07-02T07:54:56.498Z,1003.60
2018-07-02T07:55:56.468Z,1003.55
2018-07-02T07:56:56.451Z,1003.57
2018-07-02T07:57:56.430Z,1003.55
2018-07-02T07:58:56.398Z,1003.54
2018-07-02T07:59:56.380Z,1003.58
2018-07-02T08:00:56.349Z,1003.56
2018-07-02T08:01:56.338Z,1003.53
2018-07-02T08:02:56.300Z,1003.51
2018-07-02T08:03:56.280Z,1003.46
2018-07-02T08:04:56.260Z,1003.48
2018-07-02T08:05:56.234Z,1003.45
2018-07-02T08:06:56.217Z,1003.47
2018-07-02T08:07:56.186Z,1003.47
2018-07-02T08:08:56.168Z,1003.48
2018-07-02T08:09:56.141Z,1003.50
2018-07-02T08:10:56.118Z,1003.50
2018-07-02T08:11:56.094Z,1003.54
2018-07-02T08:12:56.072Z,1003.52
2018-07-02T08:13:56.042Z,1003.50
2018-07-02T08:14:56.248Z,1003.49
2018-07-02T08:15:55.994Z,1003.50
2018-07-02T08:16:55.984Z,1003.50
2018-07-02T08:17:55.946Z,1003.52
2018-07-02T08:18:55.998Z,1003.51
2018-07-02T08:19:55.933Z,1003.50
2018-07-02T08:20:55.882Z,1003.54
2018-07-02T08:21:55.853Z,1003.51
2018-07-02T08:22:55.827Z,1003.57
2018-07-02T08:23:55.814Z,1003.57
2018-07-02T08:24:55.784Z,1003.56
2018-07-02T08:25:55.759Z,1003.55
2018-07-02T08:26:55.742Z,1003.50
2018-07-02T08:27:55.714Z,1003.50
2018-07-02T08:28:55.704Z,1003.51
2018-07-02T08:29:55.675Z,1003.50
2018-07-02T08:30:55.661Z,1003.43
2018-07-02T08:31:55.617Z,1003.40
2018-07-02T08:32:55.641Z,1003.41
2018-07-02T08:33:55.575Z,1003.42
2018-07-02T08:34:55.546Z,1003.41
2018-07-02T08:35:55.526Z,1003.43
2018-07-02T08:36:55.502Z,1003.45
2018-07-02T08:37:55.475Z,1003.47
2018-07-02T08:38:55.459Z,1003.44
2018-07-02T08:39:55.432Z,1003.39
2018-07-02T08:40:55.408Z,1003.41
2018-07-02T08:41:55.382Z,1003.41
2018-07-02T08:42:55.361Z,1003.38
2018-07-02T08:43:55.356Z,1003.45
2018-07-02T08:44:55.328Z,1003.41
2018-07-02T08:45:55.289Z,1003.41
2018-07-02T08:46:55.267Z,1003.39
2018-07-02T08:47:55.240Z,1003.39
2018-07-02T08:48:55.224Z,1003.40
2018-07-02T08:49:55.197Z,1003.38
2018-07-02T08:50:55.171Z,1003.40
2018-07-02T08:51:55.153Z,1003.40
2018-07-02T08:52:55.125Z,1003.40
2018-07-02T08:53:55.100Z,1003.39
2018-07-02T08:54:55.082Z,1003.48
2018-07-02T08:55:55.054Z,1003.42
2018-07-02T08:56:55.035Z,1003.46
2018-07-02T08:57:55.010Z,1003.46
2018-07-02T08:58:54.984Z,1003.41
2018-07-02T08:59:54.985Z,1003.39
2018-07-02T09:00:54.937Z,1003.39
2018-07-02T09:01:54.922Z,1003.40
2018-07-02T09:02:54.894Z,1003.40
2018-07-02T09:03:54.866Z,1003.35
2018-07-02T09:04:54.850Z,1003.27
2018-07-02T09:05:54.826Z,1003.29
2018-07-02T09:06:54.849Z,1003.30
2018-07-02T09:07:54.775Z,1003.35
2018-07-02T09:08:54.750Z,1003.32
2018-07-02T09:09:54.730Z,1003.35
2018-07-02T09:10:54.712Z,1003.37
2018-07-02T09:11:54.680Z,1003.40
2018-07-02T09:12:54.665Z,1003.40
2018-07-02T09:13:54.638Z,1003.40
2018-07-02T09:14:54.613Z,1003.35
2018-07-02T09:15:54.600Z,1003.42
2018-07-02T09:16:54.578Z,1003.36
2018-07-02T09:17:54.541Z,1003.36
2018-07-02T09:18:54.528Z,1003.34
2018-07-02T09:19:54.498Z,1003.24
2018-07-02T09:20:54.477Z,1003.31
2018-07-02T09:21:54.448Z,1003.26
2018-07-02T09:22:54.434Z,1003.31
2018-07-02T09:23:54.410Z,1003.29
2018-07-02T09:24:54.385Z,1003.31
2018-07-02T09:25:54.357Z,1003.34
2018-07-02T09:26:54.332Z,1003.39
2018-07-02T09:27:54.319Z,1003.38
2018-07-02T09:28:54.289Z,1003.31
2018-07-02T09:29:54.280Z,1003.27
2018-07-02T09:30:54.249Z,1003.27
2018-07-02T09:31:54.223Z,1003.30
2018-07-02T09:32:54.194Z,1003.30
2018-07-02T09:33:54.178Z,1003.36
2018-07-02T09:34:54.144Z,1003.36
2018-07-02T09:35:54.128Z,1003.32
2018-07-02T09:36:54.108Z,1003.34
2018-07-02T09:37:54.085Z,1003.32
2018-07-02T09:38:54.065Z,1003.30
2018-07-02T09:39:54.041Z,1003.30
2018-07-02T09:40:54.015Z,1003.39
2018-07-02T09:41:53.991Z,1003.36
2018-07-02T09:42:53.973Z,1003.40
2018-07-02T09:43:53.960Z,1003.36
2018-07-02T09:44:53.919Z,1003.38
2018-07-02T09:45:53.901Z,1003.36
2018-07-02T09:46:53.875Z,1003.32
2018-07-02T09:47:53.851Z,1003.32
2018-07-02T09:48:53.829Z,1003.31
2018-07-02T09:49:53.804Z,1003.30
2018-07-02T09:50:53.791Z,1003.34
2018-07-02T09:51:53.762Z,1003.39
2018-07-02T09:52:53.742Z,1003.36
2018-07-02T09:53:53.710Z,1003.31
2018-07-02T09:54:53.697Z,1003.32
2018-07-02T09:55:53.669Z,1003.33
2018-07-02T09:56:53.645Z,1003.37
2018-07-02T09:57:53.620Z,1003.35
2018-07-02T09:58:53.595Z,1003.39
2018-07-02T09:59:53.575Z,1003.38
2018-07-02T10:00:53.553Z,1003.38
2018-07-02T10:01:53.527Z,1003.36
2018-07-02T10:02:53.511Z,1003.40
2018-07-02T10:03:53.479Z,1003.41
2018-07-02T10:04:53.470Z,1003.40
2018-07-02T10:05:53.442Z,1003.41
2018-07-02T10:06:53.414Z,1003.40
2018-07-02T10:07:53.397Z,1003.36
2018-07-02T10:08:53.367Z,1003.39
2018-07-02T10:09:53.354Z,1003.38
2018-07-02T10:10:53.321Z,1003.35
2018-07-02T10:11:53.302Z,1003.33
2018-07-02T10:12:53.276Z,1003.35
2018-07-02T10:13:53.256Z,1003.29
2018-07-02T10:14:53.236Z,1003.35
2018-07-02T10:15:53.207Z,1003.34
2018-07-02T10:16:53.191Z,1003.26
2018-07-02T10:17:53.162Z,1003.29
2018-07-02T10:18:53.142Z,1003.29
2018-07-02T10:19:53.119Z,1003.26
2018-07-02T10:20:53.098Z,1003.30
2018-07-02T10:21:53.075Z,1003.26
2018-07-02T10:22:53.051Z,1003.27
2018-07-02T10:23:53.079Z,1003.33
2018-07-02T10:24:53.070Z,1003.29
2018-07-02T10:25:53.047Z,1003.33
2018-07-02T10:26:52.958Z,1003.29
2018-07-02T10:27:52.949Z,1003.31
2018-07-02T10:28:52.910Z,1003.33
2018-07-02T10:29:52.897Z,1003.27
2018-07-02T10:30:52.904Z,1003.26
2018-07-02T10:31:52.844Z,1003.37
2018-07-02T10:32:52.822Z,1003.33
2018-07-02T10:33:52.804Z,1003.31
2018-07-02T10:34:52.804Z,1003.32
2018-07-02T10:35:52.762Z,1003.27
2018-07-02T10:36:52.730Z,1003.29
2018-07-02T10:37:52.714Z,1003.27
2018-07-02T10:38:52.684Z,1003.25
2018-07-02T10:39:52.719Z,1003.26
2018-07-02T10:40:52.638Z,1003.25
2018-07-02T10:41:52.617Z,1003.30
2018-07-02T10:42:52.599Z,1003.32
2018-07-02T10:43:52.578Z,1003.26
2018-07-02T10:44:52.543Z,1003.26
2018-07-02T10:45:52.536Z,1003.27
2018-07-02T10:46:52.504Z,1003.27
2018-07-02T10:47:52.482Z,1003.25
2018-07-02T10:48:52.463Z,1003.16
2018-07-02T10:49:52.477Z,1003.14
2018-07-02T10:50:52.409Z,1003.20
2018-07-02T10:51:52.401Z,1003.17
2018-07-02T10:52:52.369Z,1003.17
2018-07-02T10:53:52.354Z,1003.17
2018-07-02T10:54:52.328Z,1003.19
2018-07-02T10:55:52.308Z,1003.14
2018-07-02T10:56:52.276Z,1003.19
2018-07-02T10:57:52.273Z,1003.18
2018-07-02T10:58:52.241Z,1003.22
2018-07-02T10:59:52.205Z,1003.20
2018-07-02T11:00:52.195Z,1003.19
2018-07-02T11:01:52.165Z,1003.18
2018-07-02T11:02:52.146Z,1003.19
2018-07-02T11:03:52.161Z,1003.16
2018-07-02T11:04:52.113Z,1003.14
2018-07-02T11:05:52.081Z,1003.16
2018-07-02T11:06:52.052Z,1003.16
2018-07-02T11:07:52.027Z,1003.09
2018-07-02T11:08:52.010Z,1003.15
2018-07-02T11:09:51.993Z,1003.15
2018-07-02T11:10:51.961Z,1003.11
2018-07-02T11:11:51.939Z,1003.10
2018-07-02T11:12:51.922Z,1003.09
2018-07-02T11:13:51.907Z,1003.14
2018-07-02T11:14:51.870Z,1003.10
2018-07-02T11:15:51.850Z,1003.10
2018-07-02T11:16:51.825Z,1003.13
2018-07-02T11:17:51.805Z,1003.14
2018-07-02T11:18:51.786Z,1003.10
2018-07-02T11:19:51.760Z,1003.16
2018-07-02T11:20:51.745Z,1003.11
2018-07-02T11:21:51.734Z,1003.15
2018-07-02T11:22:51.721Z,1003.01
2018-07-02T11:23:51.679Z,1002.98
2018-07-02T11:24:51.647Z,1003.00
2018-07-02T11:25:51.629Z,1003.02
2018-07-02T11:26:51.600Z,1002.97
2018-07-02T11:27:51.585Z,1002.97
2018-07-02T11:28:51.556Z,1002.94
2018-07-02T11:29:51.537Z,1002.94
2018-07-02T11:30:51.514Z,1002.92
2018-07-02T11:31:51.487Z,1002.92
2018-07-02T11:32:51.466Z,1002.96
2018-07-02T11:33:51.452Z,1002.92
2018-07-02T11:34:51.428Z,1003.01
2018-07-02T11:35:51.400Z,1003.01
2018-07-02T11:36:51.380Z,1003.01
2018-07-02T11:37:51.363Z,1003.03
2018-07-02T11:38:51.332Z,1003.02
2018-07-02T11:39:51.318Z,1003.02
2018-07-02T11:40:51.286Z,1002.97
2018-07-02T11:41:51.268Z,1002.94
2018-07-02T11:42:51.251Z,1002.90
2018-07-02T11:43:51.221Z,1002.93
2018-07-02T11:44:51.204Z,1002.89
2018-07-02T11:45:51.175Z,1002.88
2018-07-02T11:46:51.156Z,1002.93
2018-07-02T11:47:51.131Z,1002.86
2018-07-02T11:48:51.118Z,1002.90
2018-07-02T11:49:51.097Z,1002.92
2018-07-02T11:50:51.068Z,1002.89
2018-07-02T11:51:51.051Z,1002.88
2018-07-02T11:52:51.026Z,1002.85
2018-07-02T11:53:51.001Z,1002.90
2018-07-02T11:54:50.986Z,1002.95
2018-07-02T11:55:50.960Z,1002.88
2018-07-02T11:56:50.934Z,1002.86
2018-07-02T11:57:50.913Z,1002.93
2018-07-02T11:58:50.894Z,1002.85
2018-07-02T11:59:50.873Z,1002.91
2018-07-02T12:00:50.859Z,1002.90
2018-07-02T12:01:50.872Z,1002.87
2018-07-02T12:02:50.804Z,1002.85
2018-07-02T12:03:50.785Z,1002.88
2018-07-02T12:04:50.758Z,1002.90